Bradenton Beach, FL

12:54 AM EDT on May 29, 2015 (GMT -0400)
Saint Petersburg-Clearwater International | | Change Station
CLOSE
Current Station
Airport
Location: St. Petersburg Airport,
Elevation: 10 ft
Nearby Weather Stations

Elev 10 ft 27.91 °N, 82.69 °W | Updated 1 hour ago

Clear
Clear
77 °F
Feels Like 77 °F
N
13
Wind Variable Wind from East

Today
High -- | Low -- °F
--% Chance of Precip.
Yesterday
High -- | Low -- °F
Precip. -- in
6:36 AM 8:20 PM
Waxing Gibbous, 81% visible
Pressure 30.12 in
Visibility 10.0 miles
Clouds Clear
Dew Point 59 °F
Humidity 54%
Rainfall 0.00 in
Snow Depth Not available.
UV 0 out of 12
Pollen 5.40 out of 12
Air Quality Not available.
Flu Activity Sporadic
METAR KPIE 290353Z AUTO 10011KT 10SM CLR 25/15 A3012

More Conditions Fewer Conditions

Pressure 30.12 in
Visibility 10.0 miles
Clouds Clear
Dew Point 59 °F
Humidity 54%
Rainfall 0.00 in
Snow Depth Not available.
UV 0 out of 12
Pollen 5.40 out of 12
Air Quality Not available.
Flu Activity Sporadic
METAR KPIE 290353Z AUTO 10011KT 10SM CLR 25/15 A3012

More Conditions Fewer Conditions

10-Day Weather Forecast

Almanac

Astronomy

May. 29, 2015 Rise Set
Actual Time
Civil Twilight
Nautical Twilight
Astronomical Twilight
Moon
Length of Visible Light
Length of Day
Tomorrow will be .
, % of the Moon is Illuminated

Today's Extremes

State Highs State Lows

Community

WunderPhotos

Upload Photos

1,825,209 photos uploaded!

WunderBlogs® & News

Nearby

Air Quality

  Air Quality AQ Index Pollutant
Not available.

Snow Depth

Station Depth Elevation

Earthquake Activity

City Distance Mag. Time & Date
Minimum magnitude displayed is 2.5.

Coastal Water Temperatures

Place Temperature

Stations

Nearby Weather Stations

Station Location Temp. Windchill Dew Point Humidity Wind Precip. Elev Updated Type